createdAt,value
2022-10-14T00:01:22.451Z,13.72
2022-10-14T00:03:51.417Z,13.69
2022-10-14T00:06:24.276Z,12.79
2022-10-14T00:08:52.574Z,13.56
2022-10-14T00:11:22.489Z,13.59
2022-10-14T00:13:51.065Z,12.87
2022-10-14T00:16:20.590Z,13.66
2022-10-14T00:18:48.816Z,13.58
2022-10-14T00:21:17.757Z,13.52
2022-10-14T00:23:47.575Z,13.66
2022-10-14T00:26:17.045Z,13.70
2022-10-14T00:28:45.152Z,13.72
2022-10-14T00:31:13.034Z,13.69
2022-10-14T00:33:40.854Z,13.25
2022-10-14T00:36:09.864Z,13.77
2022-10-14T00:38:37.720Z,13.43
2022-10-14T00:41:07.189Z,13.48
2022-10-14T00:43:54.401Z,13.77
2022-10-14T00:46:22.243Z,12.27
2022-10-14T00:48:56.505Z,13.56
2022-10-14T00:51:24.648Z,13.67
2022-10-14T00:53:52.682Z,13.73
2022-10-14T00:56:25.791Z,12.83
2022-10-14T00:58:54.632Z,13.66
2022-10-14T01:01:22.792Z,13.68
2022-10-14T01:03:51.871Z,13.63
2022-10-14T01:06:31.745Z,13.23
2022-10-14T01:09:04.533Z,13.73
2022-10-14T01:11:41.644Z,12.98
2022-10-14T01:14:21.679Z,12.84
2022-10-14T01:16:58.581Z,13.75
2022-10-14T01:19:55.262Z,12.32
2022-10-14T01:22:28.690Z,13.01
2022-10-14T01:25:09.664Z,13.51
2022-10-14T01:27:53.679Z,13.70
2022-10-14T01:30:24.110Z,13.70
2022-10-14T01:33:04.187Z,13.72
2022-10-14T01:35:55.461Z,13.75
2022-10-14T01:38:28.467Z,13.77
2022-10-14T01:41:05.746Z,13.49
2022-10-14T01:43:34.474Z,13.74
2022-10-14T01:46:06.944Z,12.90
2022-10-14T01:48:38.673Z,12.95
2022-10-14T01:51:12.864Z,13.08
2022-10-14T01:53:44.074Z,13.69
2022-10-14T01:56:13.286Z,13.60
2022-10-14T01:58:42.246Z,13.64
2022-10-14T02:01:12.547Z,12.42
2022-10-14T02:03:42.471Z,13.37
2022-10-14T02:06:15.771Z,13.02
2022-10-14T02:09:02.334Z,13.69
2022-10-14T02:11:38.857Z,13.63
2022-10-14T02:14:15.267Z,13.42
2022-10-14T02:16:52.854Z,13.68
2022-10-14T02:19:27.003Z,13.62
2022-10-14T02:22:01.473Z,13.57
2022-10-14T02:24:40.649Z,12.97
2022-10-14T02:27:13.037Z,13.68
2022-10-14T02:29:43.939Z,13.64
2022-10-14T02:32:15.456Z,13.72
2022-10-14T02:34:46.484Z,13.72
2022-10-14T02:37:16.731Z,13.54
2022-10-14T02:39:50.643Z,13.47
2022-10-14T02:42:18.824Z,13.64
2022-10-14T02:44:54.976Z,12.73
2022-10-14T02:47:25.280Z,13.69
2022-10-14T02:49:53.551Z,12.82
2022-10-14T02:52:22.187Z,13.68
2022-10-14T02:54:50.306Z,13.68
2022-10-14T02:57:18.239Z,13.69
2022-10-14T02:59:45.977Z,13.69
2022-10-14T03:02:13.812Z,13.47
2022-10-14T03:04:43.894Z,13.69
2022-10-14T03:07:12.387Z,13.61
2022-10-14T03:09:45.999Z,13.69
2022-10-14T03:12:13.919Z,13.62
2022-10-14T03:14:42.070Z,13.09
2022-10-14T03:17:13.339Z,13.68
2022-10-14T03:19:41.427Z,13.39
2022-10-14T03:22:10.879Z,13.62
2022-10-14T03:24:40.219Z,13.65
2022-10-14T03:27:26.809Z,12.90
2022-10-14T03:30:00.710Z,12.86
2022-10-14T03:32:28.923Z,13.09
2022-10-14T03:35:19.665Z,13.56
2022-10-14T03:37:53.141Z,13.69
2022-10-14T03:40:23.179Z,12.83
2022-10-14T03:42:52.073Z,13.28
2022-10-14T03:45:22.058Z,13.49
2022-10-14T03:47:49.962Z,13.67
2022-10-14T03:50:17.825Z,12.72
2022-10-14T03:52:55.406Z,13.59
2022-10-14T03:55:30.848Z,13.68
2022-10-14T03:57:59.179Z,13.69
2022-10-14T04:00:27.656Z,13.35
2022-10-14T04:03:09.019Z,13.65
2022-10-14T04:05:40.297Z,12.89
2022-10-14T04:08:17.502Z,13.47
2022-10-14T04:10:53.886Z,13.08
2022-10-14T04:13:23.070Z,12.72
2022-10-14T04:15:51.184Z,13.38
2022-10-14T04:18:25.875Z,13.51
2022-10-14T04:21:01.193Z,13.09
2022-10-14T04:23:30.965Z,13.54
2022-10-14T04:26:05.868Z,13.57
2022-10-14T04:28:34.946Z,12.48
2022-10-14T04:31:12.535Z,12.95
2022-10-14T04:33:53.092Z,12.74
2022-10-14T04:36:27.507Z,13.65
2022-10-14T04:38:59.036Z,12.71
2022-10-14T04:41:26.808Z,13.22
2022-10-14T04:43:57.084Z,12.74
2022-10-14T04:46:44.561Z,13.31
2022-10-14T04:49:12.817Z,13.63
2022-10-14T04:51:49.764Z,12.86
2022-10-14T04:54:28.492Z,13.61
2022-10-14T04:56:58.954Z,13.60
2022-10-14T04:59:27.008Z,13.60
2022-10-14T05:02:01.159Z,13.60
2022-10-14T05:04:37.711Z,13.57
2022-10-14T05:07:05.452Z,13.57
2022-10-14T05:09:34.560Z,13.59
2022-10-14T05:12:02.863Z,13.63
2022-10-14T05:14:46.557Z,13.66
2022-10-14T05:17:21.828Z,13.70
2022-10-14T05:19:49.657Z,13.72
2022-10-14T05:22:19.836Z,13.70
2022-10-14T05:24:49.395Z,13.23
2022-10-14T05:27:17.746Z,13.75
2022-10-14T05:29:48.771Z,13.77
2022-10-14T05:32:20.125Z,13.48
2022-10-14T05:34:50.793Z,13.79
2022-10-14T05:37:26.833Z,12.89
2022-10-14T05:39:57.525Z,13.76
2022-10-14T05:42:27.824Z,13.76
2022-10-14T05:44:58.540Z,13.77
2022-10-14T05:47:27.483Z,13.79
2022-10-14T05:50:03.013Z,13.78
2022-10-14T05:52:34.305Z,13.78
2022-10-14T05:55:09.508Z,13.76
2022-10-14T05:57:37.304Z,13.52
2022-10-14T06:00:07.820Z,13.75
2022-10-14T06:02:44.924Z,13.76
2022-10-14T06:05:17.097Z,13.76
2022-10-14T06:07:45.478Z,13.51
2022-10-14T06:10:14.622Z,13.71
2022-10-14T06:12:42.501Z,13.79
2022-10-14T06:15:11.084Z,13.47
2022-10-14T06:17:39.040Z,13.88
2022-10-14T06:20:07.910Z,13.93
2022-10-14T06:22:35.608Z,13.96
2022-10-14T06:25:04.657Z,13.98
2022-10-14T06:27:33.895Z,13.99
2022-10-14T06:30:01.661Z,13.24
2022-10-14T06:32:29.529Z,14.02
2022-10-14T06:34:57.352Z,13.39
2022-10-14T06:37:25.185Z,13.93
2022-10-14T06:39:52.955Z,14.02
2022-10-14T06:42:20.727Z,14.15
2022-10-14T06:44:49.924Z,13.00
2022-10-14T06:47:17.744Z,13.35
2022-10-14T06:49:45.516Z,14.29
2022-10-14T06:52:13.335Z,14.29
2022-10-14T06:54:43.608Z,14.31
2022-10-14T06:57:15.181Z,14.34
2022-10-14T06:59:42.937Z,14.35
2022-10-14T07:02:12.183Z,14.37
2022-10-14T07:04:40.042Z,14.37
2022-10-14T07:07:08.388Z,14.38
2022-10-14T07:09:36.212Z,14.02
2022-10-14T07:12:04.051Z,14.07
2022-10-14T07:14:31.804Z,14.36
2022-10-14T07:17:00.460Z,14.26
2022-10-14T07:19:29.604Z,14.23
2022-10-14T07:21:57.412Z,13.45
2022-10-14T07:24:25.500Z,14.01
2022-10-14T07:26:53.325Z,14.19
2022-10-14T07:29:21.368Z,13.92
2022-10-14T07:31:49.107Z,13.96
2022-10-14T07:34:16.864Z,14.47
2022-10-14T07:36:45.998Z,14.53
2022-10-14T07:39:13.989Z,14.54
2022-10-14T07:41:41.869Z,14.48
2022-10-14T07:44:10.163Z,14.42
2022-10-14T07:46:41.188Z,14.64
2022-10-14T07:49:12.023Z,14.71
2022-10-14T07:51:41.075Z,14.69
2022-10-14T07:54:14.277Z,14.80
2022-10-14T07:56:43.888Z,14.88
2022-10-14T07:59:12.129Z,14.94
2022-10-14T08:01:40.020Z,14.96
2022-10-14T08:04:08.056Z,14.95
2022-10-14T08:06:35.881Z,14.22
2022-10-14T08:09:05.124Z,15.04
2022-10-14T08:11:34.697Z,15.10
2022-10-14T08:14:02.737Z,15.16
2022-10-14T08:16:32.600Z,13.92
2022-10-14T08:19:02.783Z,15.33
2022-10-14T08:21:30.514Z,15.43
2022-10-14T08:23:58.570Z,14.79
2022-10-14T08:26:29.788Z,15.66
2022-10-14T08:29:01.148Z,15.77
2022-10-14T08:31:29.372Z,15.64
2022-10-14T08:33:57.187Z,15.83
2022-10-14T08:36:25.163Z,15.91
2022-10-14T08:38:53.808Z,15.90
2022-10-14T08:41:34.510Z,15.91
2022-10-14T08:44:14.297Z,15.33
2022-10-14T08:46:49.504Z,15.95
2022-10-14T08:49:26.013Z,16.11
2022-10-14T08:51:59.962Z,16.18
2022-10-14T08:54:35.816Z,16.20
2022-10-14T08:57:04.519Z,16.22
2022-10-14T08:59:38.175Z,16.23
2022-10-14T09:02:20.236Z,16.30
2022-10-14T09:04:48.186Z,16.43
2022-10-14T09:07:19.548Z,16.51
2022-10-14T09:09:51.691Z,16.47
2022-10-14T09:12:25.226Z,16.61
2022-10-14T09:15:05.121Z,16.81
2022-10-14T09:17:38.143Z,15.70
2022-10-14T09:20:17.460Z,16.40
2022-10-14T09:22:46.316Z,16.62
2022-10-14T09:25:16.463Z,17.06
2022-10-14T09:30:20.382Z,15.69
2022-10-14T09:32:51.926Z,16.96
2022-10-14T09:35:25.119Z,14.18
2022-10-14T09:37:53.564Z,17.00
2022-10-14T09:40:30.045Z,16.82
2022-10-14T09:43:01.348Z,16.82
2022-10-14T09:45:46.817Z,17.23
2022-10-14T09:48:18.753Z,17.34
2022-10-14T09:50:51.563Z,17.29
2022-10-14T09:53:27.952Z,17.20
2022-10-14T09:55:58.737Z,17.09
2022-10-14T09:58:32.730Z,17.02
2022-10-14T10:01:02.893Z,17.03
2022-10-14T10:03:33.975Z,17.24
2022-10-14T10:06:07.690Z,17.52
2022-10-14T10:08:37.673Z,17.36
2022-10-14T10:11:10.380Z,16.60
2022-10-14T10:13:41.603Z,17.36
2022-10-14T10:16:24.888Z,18.14
2022-10-14T10:18:55.161Z,18.65
2022-10-14T10:21:25.760Z,17.97
2022-10-14T10:23:58.809Z,17.76
2022-10-14T10:26:30.616Z,17.00
2022-10-14T10:28:59.500Z,18.52
2022-10-14T10:34:23.858Z,18.39
2022-10-14T10:36:57.449Z,18.62
2022-10-14T10:39:38.107Z,18.52
2022-10-14T10:42:12.786Z,18.41
2022-10-14T10:44:59.399Z,18.27
2022-10-14T10:47:41.080Z,18.13
2022-10-14T10:50:28.765Z,17.80
2022-10-14T10:53:22.811Z,17.81
2022-10-14T10:56:00.941Z,18.00
2022-10-14T10:58:41.549Z,17.85
2022-10-14T11:01:26.232Z,16.41
2022-10-14T11:04:15.970Z,17.64
2022-10-14T11:07:10.749Z,17.55
2022-10-14T11:10:02.143Z,17.70
2022-10-14T11:12:40.140Z,17.71
2022-10-14T11:15:31.391Z,17.72
2022-10-14T11:18:04.233Z,17.74
2022-10-14T11:20:43.697Z,16.34
2022-10-14T11:23:34.673Z,17.60
2022-10-14T11:26:08.272Z,15.96
2022-10-14T11:28:45.732Z,17.34
2022-10-14T11:31:26.905Z,17.26
2022-10-14T11:34:18.537Z,16.67
2022-10-14T11:37:01.389Z,17.29
2022-10-14T11:39:39.663Z,17.32
2022-10-14T11:42:26.893Z,17.32
2022-10-14T11:45:24.225Z,16.85
2022-10-14T11:48:05.457Z,16.08
2022-10-14T11:50:40.213Z,16.99
2022-10-14T11:53:15.217Z,16.88
2022-10-14T11:55:49.625Z,16.45
2022-10-14T11:58:23.803Z,16.51
2022-10-14T12:00:56.454Z,16.55
2022-10-14T12:03:37.481Z,16.04
2022-10-14T12:06:16.621Z,16.54
2022-10-14T12:08:51.490Z,16.24
2022-10-14T12:11:28.928Z,16.31
2022-10-14T12:14:06.513Z,16.63
2022-10-14T12:16:34.964Z,16.68
2022-10-14T12:19:02.969Z,16.68
2022-10-14T12:21:36.540Z,16.69
2022-10-14T12:24:11.871Z,16.71
2022-10-14T12:26:55.431Z,16.76
2022-10-14T12:29:26.037Z,15.45
2022-10-14T12:32:21.025Z,16.92
2022-10-14T12:34:50.860Z,16.25
2022-10-14T12:37:46.128Z,17.00
2022-10-14T12:40:31.989Z,16.95
2022-10-14T12:43:04.595Z,15.55
2022-10-14T12:45:35.770Z,16.32
2022-10-14T12:48:08.741Z,15.27
2022-10-14T12:50:38.651Z,16.33
2022-10-14T12:53:09.272Z,15.80
2022-10-14T12:55:49.438Z,15.29
2022-10-14T12:58:25.004Z,16.77
2022-10-14T13:01:00.098Z,16.89
2022-10-14T13:03:31.993Z,16.92
2022-10-14T13:06:27.736Z,16.99
2022-10-14T13:09:33.351Z,16.67
2022-10-14T13:12:43.868Z,16.99
2022-10-14T13:15:34.160Z,16.98
2022-10-14T13:18:35.232Z,16.84
2022-10-14T13:21:03.501Z,15.60
2022-10-14T13:23:37.926Z,17.04
2022-10-14T13:26:20.405Z,16.72
2022-10-14T13:29:00.282Z,15.65
2022-10-14T13:31:38.874Z,17.26
2022-10-14T13:34:18.993Z,17.23
2022-10-14T13:37:01.899Z,16.98
2022-10-14T13:39:33.422Z,16.49
2022-10-14T13:42:02.102Z,17.25
2022-10-14T13:44:31.403Z,17.17
2022-10-14T13:47:02.556Z,14.72
2022-10-14T13:49:37.491Z,17.09
2022-10-14T13:52:10.635Z,17.39
2022-10-14T13:54:38.465Z,17.39
2022-10-14T14:02:53.861Z,17.24
2022-10-14T14:05:27.482Z,17.34
2022-10-14T14:11:14.887Z,16.94
2022-10-14T14:13:53.408Z,16.94
2022-10-14T14:16:27.208Z,17.20
2022-10-14T14:19:04.362Z,16.10
2022-10-14T14:21:36.097Z,17.28
2022-10-14T14:24:16.200Z,17.32
2022-10-14T14:26:49.493Z,17.31
2022-10-14T14:29:23.431Z,16.33
2022-10-14T14:32:08.746Z,17.37
2022-10-14T14:34:39.734Z,16.99
2022-10-14T14:37:40.279Z,17.19
2022-10-14T14:40:07.698Z,17.09
2022-10-14T14:42:37.678Z,17.08
2022-10-14T14:45:12.536Z,16.71
2022-10-14T14:47:42.645Z,16.69
2022-10-14T14:50:31.120Z,17.25
2022-10-14T14:53:03.359Z,17.22
2022-10-14T14:55:36.857Z,14.98
2022-10-14T14:58:07.773Z,17.23
2022-10-14T15:00:35.711Z,17.01
2022-10-14T15:03:05.180Z,16.23
2022-10-14T15:05:33.172Z,17.20
2022-10-14T15:08:01.079Z,16.77
2022-10-14T15:10:31.567Z,14.42
2022-10-14T15:13:02.671Z,17.31
2022-10-14T15:15:35.037Z,15.54
2022-10-14T15:18:24.761Z,16.92
2022-10-14T15:20:53.010Z,15.57
2022-10-14T15:23:41.878Z,16.97
2022-10-14T15:26:24.557Z,17.27
2022-10-14T15:32:06.024Z,16.71
2022-10-14T15:34:37.769Z,16.41
2022-10-14T15:37:06.134Z,17.06
2022-10-14T15:39:34.185Z,15.30
2022-10-14T15:42:02.284Z,16.51
2022-10-14T15:44:32.811Z,15.95
2022-10-14T15:47:18.233Z,15.94
2022-10-14T15:49:48.278Z,16.82
2022-10-14T15:52:20.397Z,16.16
2022-10-14T15:54:51.096Z,16.20
2022-10-14T15:57:18.981Z,16.63
2022-10-14T15:59:52.012Z,16.68
2022-10-14T16:02:25.988Z,16.64
2022-10-14T16:07:43.799Z,15.97
2022-10-14T16:10:14.710Z,16.45
2022-10-14T16:12:42.776Z,16.30
2022-10-14T16:15:24.230Z,15.84
2022-10-14T16:17:53.188Z,16.36
2022-10-14T16:20:23.403Z,14.61
2022-10-14T16:22:51.828Z,16.16
2022-10-14T16:25:26.246Z,15.80
2022-10-14T16:27:54.157Z,15.48
2022-10-14T16:30:22.868Z,16.10
2022-10-14T16:32:51.322Z,15.67
2022-10-14T16:35:19.284Z,15.74
2022-10-14T16:37:48.865Z,16.05
2022-10-14T16:40:17.092Z,14.50
2022-10-14T16:42:45.392Z,14.28
2022-10-14T16:45:14.233Z,16.01
2022-10-14T16:47:42.155Z,15.86
2022-10-14T16:50:11.615Z,15.83
2022-10-14T16:53:08.599Z,13.95
2022-10-14T16:55:39.262Z,15.95
2022-10-14T16:58:07.133Z,13.96
2022-10-14T17:00:36.211Z,15.30
2022-10-14T17:03:08.950Z,15.88
2022-10-14T17:05:36.906Z,14.45
2022-10-14T17:08:08.297Z,15.80
2022-10-14T17:10:39.180Z,15.70
2022-10-14T17:13:07.167Z,15.77
2022-10-14T17:15:39.299Z,15.76
2022-10-14T17:18:09.939Z,14.90
2022-10-14T17:20:40.224Z,15.46
2022-10-14T17:23:10.335Z,15.61
2022-10-14T17:25:46.183Z,15.12
2022-10-14T17:28:14.081Z,14.66
2022-10-14T17:30:41.917Z,15.65
2022-10-14T17:33:09.785Z,15.45
2022-10-14T17:35:37.678Z,15.08
2022-10-14T17:38:07.413Z,13.58
2022-10-14T17:40:35.481Z,14.90
2022-10-14T17:43:05.149Z,14.99
2022-10-14T17:45:33.096Z,12.30
2022-10-14T17:48:01.037Z,14.98
2022-10-14T17:50:30.144Z,13.60
2022-10-14T17:52:59.013Z,14.57
2022-10-14T17:55:28.436Z,13.62
2022-10-14T17:57:56.606Z,12.84
2022-10-14T18:00:26.055Z,15.31
2022-10-14T18:02:54.215Z,14.53
2022-10-14T18:05:22.344Z,15.52
2022-10-14T18:07:50.287Z,12.82
2022-10-14T18:10:18.326Z,15.45
2022-10-14T18:12:46.297Z,14.26
2022-10-14T18:15:14.271Z,15.55
2022-10-14T18:17:43.731Z,13.51
2022-10-14T18:20:11.864Z,14.48
2022-10-14T18:22:40.652Z,13.05
2022-10-14T18:25:09.266Z,15.48
2022-10-14T18:27:37.231Z,15.45
2022-10-14T18:30:06.137Z,14.44
2022-10-14T18:32:34.222Z,15.54
2022-10-14T18:35:05.439Z,15.19
2022-10-14T18:37:33.407Z,15.28
2022-10-14T18:40:01.309Z,15.27
2022-10-14T18:42:29.605Z,13.83
2022-10-14T18:44:59.079Z,15.48
2022-10-14T18:47:27.036Z,15.46
2022-10-14T18:49:55.012Z,15.09
2022-10-14T18:52:25.537Z,14.92
2022-10-14T18:54:53.850Z,14.10
2022-10-14T18:57:23.858Z,15.08
2022-10-14T18:59:52.570Z,15.43
2022-10-14T19:02:21.680Z,14.30
2022-10-14T19:04:50.090Z,15.41
2022-10-14T19:07:18.697Z,15.37
2022-10-14T19:09:48.761Z,14.12
2022-10-14T19:12:33.949Z,15.04
2022-10-14T19:15:04.403Z,13.99
2022-10-14T19:17:33.881Z,13.71
2022-10-14T19:20:01.874Z,15.12
2022-10-14T19:22:29.798Z,14.66
2022-10-14T19:24:59.132Z,14.86
2022-10-14T19:27:27.466Z,12.43
2022-10-14T19:29:55.531Z,14.97
2022-10-14T19:32:24.859Z,13.40
2022-10-14T19:34:52.972Z,12.78
2022-10-14T19:37:21.913Z,14.09
2022-10-14T19:39:53.349Z,13.52
2022-10-14T19:42:27.151Z,14.07
2022-10-14T19:45:05.890Z,13.61
2022-10-14T19:47:36.598Z,15.21
2022-10-14T19:50:19.553Z,14.47
2022-10-14T19:52:48.191Z,14.93
2022-10-14T19:55:16.543Z,12.27
2022-10-14T19:57:46.409Z,15.12
2022-10-14T20:00:15.571Z,14.54
2022-10-14T20:02:46.594Z,14.07
2022-10-14T20:05:17.533Z,14.86
2022-10-14T20:07:46.288Z,13.31
2022-10-14T20:10:15.335Z,14.42
2022-10-14T20:12:43.916Z,14.97
2022-10-14T20:15:13.870Z,13.00
2022-10-14T20:17:42.811Z,14.84
2022-10-14T20:20:13.173Z,15.08
2022-10-14T20:22:41.454Z,13.83
2022-10-14T20:25:11.086Z,14.30
2022-10-14T20:27:39.809Z,12.66
2022-10-14T20:30:09.178Z,14.74
2022-10-14T20:32:39.062Z,11.86
2022-10-14T20:35:10.471Z,14.06
2022-10-14T20:37:42.620Z,13.34
2022-10-14T20:40:11.889Z,13.41
2022-10-14T20:42:40.064Z,15.21
2022-10-14T20:45:09.037Z,15.25
2022-10-14T20:47:38.722Z,14.18
2022-10-14T20:50:07.882Z,15.28
2022-10-14T20:52:35.755Z,14.93
2022-10-14T20:55:04.436Z,15.27
2022-10-14T20:57:32.665Z,15.28
2022-10-14T21:00:00.999Z,13.73
2022-10-14T21:02:29.351Z,14.33
2022-10-14T21:05:00.797Z,14.12
2022-10-14T21:07:29.174Z,12.29
2022-10-14T21:09:57.266Z,13.54
2022-10-14T21:12:26.336Z,15.22
2022-10-14T21:14:54.563Z,13.40
2022-10-14T21:17:23.071Z,15.20
2022-10-14T21:19:51.441Z,13.19
2022-10-14T21:22:21.504Z,14.22
2022-10-14T21:24:49.965Z,13.07
2022-10-14T21:27:18.028Z,13.97
2022-10-14T21:29:46.977Z,15.12
2022-10-14T21:32:15.818Z,15.22
2022-10-14T21:34:44.564Z,14.80
2022-10-14T21:37:14.549Z,15.28
2022-10-14T21:39:44.728Z,15.25
2022-10-14T21:42:14.512Z,14.20
2022-10-14T21:44:42.581Z,12.52
2022-10-14T21:47:10.456Z,14.24
2022-10-14T21:49:38.580Z,15.27
2022-10-14T21:52:08.393Z,14.22
2022-10-14T21:54:36.941Z,15.19
2022-10-14T21:57:07.053Z,15.22
2022-10-14T21:59:35.850Z,12.58
2022-10-14T22:02:05.237Z,15.30
2022-10-14T22:04:35.989Z,13.38
2022-10-14T22:09:59.727Z,15.19
2022-10-14T22:12:30.581Z,14.72
2022-10-14T22:14:58.927Z,14.86
2022-10-14T22:17:27.270Z,15.30
2022-10-14T22:20:00.492Z,13.60
2022-10-14T22:22:31.358Z,14.04
2022-10-14T22:25:01.409Z,14.21
2022-10-14T22:27:31.584Z,12.98
2022-10-14T22:30:02.524Z,13.83
2022-10-14T22:32:31.348Z,15.17
2022-10-14T22:37:46.495Z,12.12
2022-10-14T22:40:15.101Z,15.24
2022-10-14T22:42:49.070Z,14.93
2022-10-14T22:45:20.014Z,15.09
2022-10-14T22:47:48.155Z,14.16
2022-10-14T22:50:16.857Z,15.25
2022-10-14T22:52:45.296Z,14.86
2022-10-14T22:55:15.811Z,12.76
2022-10-14T22:57:45.450Z,14.51
2022-10-14T23:00:16.619Z,13.26
2022-10-14T23:02:47.071Z,13.79
2022-10-14T23:05:15.350Z,15.21
2022-10-14T23:07:43.869Z,14.59
2022-10-14T23:10:12.084Z,15.20
2022-10-14T23:12:40.655Z,14.06
2022-10-14T23:15:11.486Z,15.12
2022-10-14T23:17:40.450Z,14.22
2022-10-14T23:20:10.685Z,14.39
2022-10-14T23:22:38.960Z,15.16
2022-10-14T23:25:08.564Z,14.36
2022-10-14T23:27:36.836Z,13.87
2022-10-14T23:30:06.193Z,14.37
2022-10-14T23:32:36.166Z,14.24
2022-10-14T23:35:05.130Z,13.08
2022-10-14T23:37:33.558Z,14.29
2022-10-14T23:40:02.299Z,14.03
2022-10-14T23:42:30.892Z,14.71
2022-10-14T23:44:59.851Z,13.63
2022-10-14T23:47:29.453Z,15.26
2022-10-14T23:49:59.738Z,14.78
2022-10-14T23:52:28.530Z,15.22
2022-10-14T23:57:25.758Z,13.81
2022-10-14T23:59:55.827Z,13.27
